Time;durP1;ratioP1;P1;durP2;ratioP2;P2;SDS_P1;SDS_P2;PMS_P1;PMS_P2;Temp;Humidity;BMP_temperature;BMP_pressure;BME280_temperature;BME280_humidity;BME280_pressure;Samples;Min_cycle;Max_cycle;Signal;HPM_P1;HPM_P2
2021/07/30 00:00:46;;;;;;;11.73;6.53;;;;;;;23.89;100.00;96179.44;5134987;27;20739;-82
2021/07/30 00:03:14;;;;;;;13.00;7.60;;;;;;;23.80;100.00;96166.69;5135056;27;20191;-81
2021/07/30 00:05:42;;;;;;;14.63;6.90;;;;;;;23.64;100.00;96168.28;5134520;27;20195;-82
2021/07/30 00:08:09;;;;;;;12.63;6.90;;;;;;;23.58;100.00;96171.94;5134967;27;20704;-81
2021/07/30 00:10:36;;;;;;;14.40;7.60;;;;;;;23.82;100.00;96164.56;5134719;27;20267;-81
2021/07/30 00:13:04;;;;;;;15.03;7.87;;;;;;;23.79;100.00;96176.59;5134873;27;20243;-81
2021/07/30 00:15:31;;;;;;;12.53;7.90;;;;;;;23.83;100.00;96188.50;5134435;27;20247;-82
2021/07/30 00:17:58;;;;;;;12.63;7.27;;;;;;;24.07;100.00;96193.66;5134850;27;20198;-82
2021/07/30 00:20:27;;;;;;;13.27;6.93;;;;;;;24.15;100.00;96193.25;5133961;27;20231;-81
2021/07/30 00:22:54;;;;;;;10.33;7.23;;;;;;;24.09;100.00;96191.56;5134464;27;20201;-81
2021/07/30 00:25:21;;;;;;;12.07;7.70;;;;;;;24.40;100.00;96182.09;5134460;27;20247;-81
2021/07/30 00:27:49;;;;;;;12.47;7.17;;;;;;;24.36;100.00;96180.94;5134546;27;20198;-82
2021/07/30 00:30:16;;;;;;;15.23;8.13;;;;;;;24.28;100.00;96184.88;5134570;27;20226;-81
2021/07/30 00:32:43;;;;;;;14.90;7.37;;;;;;;24.29;100.00;96181.13;5134522;27;20277;-81
2021/07/30 00:35:11;;;;;;;10.60;7.20;;;;;;;24.39;100.00;96181.25;5134319;27;20194;-81
2021/07/30 00:37:40;;;;;;;11.60;6.50;;;;;;;24.49;100.00;96180.63;5134320;27;20205;-81
2021/07/30 00:40:08;;;;;;;11.87;7.27;;;;;;;24.43;100.00;96178.91;5134191;27;20658;-81
2021/07/30 00:42:36;;;;;;;13.13;6.83;;;;;;;24.21;100.00;96186.88;5134055;27;20206;-81
2021/07/30 00:45:05;;;;;;;9.97;6.30;;;;;;;23.87;100.00;96173.53;5134485;27;20201;-81
2021/07/30 00:47:32;;;;;;;13.33;8.23;;;;;;;24.01;100.00;96170.50;5134113;27;20234;-81
2021/07/30 00:50:00;;;;;;;13.17;8.20;;;;;;;23.88;100.00;96164.41;5133900;27;20717;-81
2021/07/30 00:52:28;;;;;;;13.07;7.60;;;;;;;24.05;100.00;96160.91;5133658;27;20190;-82
2021/07/30 00:54:57;;;;;;;14.40;7.57;;;;;;;24.11;100.00;96157.22;5134193;27;20198;-81
2021/07/30 00:57:25;;;;;;;12.07;7.57;;;;;;;23.94;100.00;96154.56;5134293;27;20245;-81
2021/07/30 00:59:53;;;;;;;11.00;7.47;;;;;;;23.68;100.00;96150.66;5133736;27;20203;-81
2021/07/30 01:02:21;;;;;;;12.03;7.73;;;;;;;23.47;100.00;96152.19;5133946;27;20248;-82
2021/07/30 01:04:48;;;;;;;12.47;7.53;;;;;;;23.34;100.00;96155.97;5133419;27;20658;-81
2021/07/30 01:07:15;;;;;;;9.93;6.87;;;;;;;23.13;100.00;96154.78;5133798;27;20621;-81
2021/07/30 01:09:43;;;;;;;13.00;7.63;;;;;;;23.41;100.00;96155.81;5133473;27;20190;-80
2021/07/30 01:12:12;;;;;;;10.27;6.80;;;;;;;23.60;100.00;96161.78;5133809;27;20214;-81
2021/07/30 01:14:39;;;;;;;10.93;7.03;;;;;;;23.47;100.00;96162.91;5133738;27;20191;-82
2021/07/30 01:17:06;;;;;;;8.87;6.13;;;;;;;23.29;100.00;96160.44;5133879;27;20195;-81
2021/07/30 01:19:34;;;;;;;13.87;7.03;;;;;;;23.34;100.00;96155.97;5132983;27;20310;-82
2021/07/30 01:22:08;;;;;;;9.30;6.97;;;;;;;23.71;100.00;96152.88;5133542;27;20191;-81
2021/07/30 01:24:36;;;;;;;13.53;7.17;;;;;;;23.56;100.00;96150.72;5133414;27;20654;-80
2021/07/30 01:27:04;;;;;;;12.13;7.57;;;;;;;23.45;100.00;96151.59;5134511;27;20255;-80
2021/07/30 01:29:31;;;;;;;10.20;7.70;;;;;;;23.31;100.00;96145.75;5154183;27;20661;-80
2021/07/30 01:31:59;;;;;;;14.40;8.77;;;;;;;23.12;100.00;96145.13;5153844;27;20639;-79
2021/07/30 01:34:26;;;;;;;15.57;8.90;;;;;;;23.02;100.00;96144.94;5153706;27;20200;-81
2021/07/30 01:36:53;;;;;;;12.43;6.80;;;;;;;23.04;100.00;96139.38;5153896;27;20193;-80
2021/07/30 01:39:20;;;;;;;15.67;8.17;;;;;;;23.13;100.00;96151.31;5153688;27;20232;-79
2021/07/30 01:41:49;;;;;;;9.77;6.80;;;;;;;23.30;100.00;96146.78;5153526;27;20193;-79
2021/07/30 01:44:16;;;;;;;9.07;6.50;;;;;;;23.44;100.00;96142.72;5153406;27;20205;-81
2021/07/30 01:46:45;;;;;;;12.23;7.00;;;;;;;23.26;100.00;96142.97;5153526;27;20232;-79
2021/07/30 01:49:12;;;;;;;11.37;7.60;;;;;;;23.24;100.00;96142.38;5153428;27;20229;-79
2021/07/30 01:51:40;;;;;;;10.93;8.03;;;;;;;23.48;100.00;96135.00;5153234;27;20226;-79
2021/07/30 01:54:07;;;;;;;13.77;8.03;;;;;;;23.35;100.00;96143.41;5136137;27;20698;-79
2021/07/30 01:56:35;;;;;;;12.57;8.37;;;;;;;23.43;100.00;96137.63;5133223;27;20199;-80
2021/07/30 01:59:03;;;;;;;14.40;8.33;;;;;;;23.39;100.00;96139.16;5132515;27;20199;-79
2021/07/30 02:01:31;;;;;;;14.10;7.97;;;;;;;23.35;100.00;96138.84;5132454;27;20551;-81
2021/07/30 02:04:00;;;;;;;13.87;7.83;;;;;;;23.42;100.00;96138.69;5132798;27;20282;-79
2021/07/30 02:06:28;;;;;;;12.13;6.87;;;;;;;23.42;100.00;96139.50;5132438;27;20658;-81
2021/07/30 02:08:55;;;;;;;15.70;8.03;;;;;;;23.16;100.00;96140.09;5132143;27;20210;-80
2021/07/30 02:11:22;;;;;;;13.17;7.73;;;;;;;23.06;100.00;96139.91;5132577;27;20222;-80
2021/07/30 02:16:35;;;;;;;10.30;7.50;;;;;;;23.30;100.00;96141.44;5132553;28;20316;-80
2021/07/30 02:19:02;;;;;;;11.60;7.67;;;;;;;23.37;100.00;96136.72;5132241;27;20329;-79
2021/07/30 02:21:30;;;;;;;10.87;7.47;;;;;;;23.33;100.00;96134.78;5132580;27;20191;-80
2021/07/30 02:23:57;;;;;;;11.87;7.30;;;;;;;23.10;100.00;96141.88;5132593;27;20202;-80
2021/07/30 02:26:24;;;;;;;11.30;7.27;;;;;;;23.30;100.00;96144.09;5132403;27;20201;-79
2021/07/30 02:28:51;;;;;;;12.07;7.43;;;;;;;23.40;100.00;96138.09;5132663;27;20206;-81
2021/07/30 02:31:18;;;;;;;12.87;7.87;;;;;;;23.06;100.00;96139.91;5135388;27;20223;-80
2021/07/30 02:33:47;;;;;;;12.50;7.90;;;;;;;23.00;100.00;96133.66;5136537;27;20199;-80
2021/07/30 02:36:14;;;;;;;10.17;7.60;;;;;;;23.08;100.00;96140.50;5136473;27;20233;-81
2021/07/30 02:38:42;;;;;;;13.33;8.43;;;;;;;23.06;100.00;96134.56;5136564;27;20194;-79
2021/07/30 02:41:09;;;;;;;13.30;8.20;;;;;;;23.05;100.00;96138.31;5136181;27;20238;-80
2021/07/30 02:43:36;;;;;;;12.20;8.00;;;;;;;22.87;100.00;96137.41;5136544;27;20742;-80
2021/07/30 02:46:03;;;;;;;10.70;7.27;;;;;;;22.68;100.00;96133.28;5136133;27;20234;-79
2021/07/30 02:48:31;;;;;;;12.07;7.60;;;;;;;22.68;100.00;96133.28;5136632;27;20198;-80
2021/07/30 02:50:59;;;;;;;10.37;7.57;;;;;;;22.56;100.00;96130.66;5135854;27;20230;-79
2021/07/30 02:53:27;;;;;;;7.20;6.13;;;;;;;22.72;100.00;96134.44;5136588;27;20199;-81
2021/07/30 02:55:54;;;;;;;13.47;7.30;;;;;;;22.66;100.00;96135.41;5135867;27;20242;-79
2021/07/30 02:58:21;;;;;;;14.03;7.57;;;;;;;22.86;100.00;96135.78;5136167;27;20191;-80
2021/07/30 03:00:48;;;;;;;12.40;6.63;;;;;;;22.85;100.00;96138.69;5135978;27;20195;-80
2021/07/30 03:03:16;;;;;;;12.90;7.37;;;;;;;23.04;100.00;96132.13;5135832;27;20655;-80
2021/07/30 03:05:43;;;;;;;16.03;8.77;;;;;;;22.93;100.00;96127.63;5135859;27;20199;-80
2021/07/30 03:08:12;;;;;;;11.47;8.03;;;;;;;22.93;100.00;96127.63;5135850;27;20241;-80
2021/07/30 03:10:39;;;;;;;22.03;8.90;;;;;;;22.98;100.00;96127.72;5135946;27;20195;-80
2021/07/30 03:13:06;;;;;;;8.80;7.90;;;;;;;23.09;100.00;96134.09;5135859;27;20233;-80
2021/07/30 03:15:33;;;;;;;14.20;7.53;;;;;;;23.11;100.00;96129.31;5135770;27;20642;-79
2021/07/30 03:18:01;;;;;;;13.40;7.80;;;;;;;22.86;100.00;96127.75;5136037;27;20650;-79
2021/07/30 03:20:28;;;;;;;13.93;7.57;;;;;;;22.77;100.00;96135.34;5135522;27;20634;-80
2021/07/30 03:22:55;;;;;;;10.83;7.70;;;;;;;22.93;100.00;96132.97;5135806;27;20221;-79
2021/07/30 03:25:24;;;;;;;12.77;8.07;;;;;;;23.14;100.00;96136.84;5135958;27;20198;-80
2021/07/30 03:27:51;;;;;;;11.67;7.53;;;;;;;22.91;100.00;96133.19;5135964;27;20249;-81
2021/07/30 03:30:18;;;;;;;15.10;8.37;;;;;;;22.56;100.00;96133.34;5135431;27;20626;-80
2021/07/30 03:32:45;;;;;;;18.83;8.37;;;;;;;22.69;100.00;96140.28;5135528;27;20229;-80
2021/07/30 03:35:13;;;;;;;14.37;8.77;;;;;;;22.75;100.00;96133.97;5135404;27;20199;-80
2021/07/30 03:37:40;;;;;;;10.57;8.37;;;;;;;22.92;100.00;96137.53;5135452;27;20293;-80
2021/07/30 03:40:09;;;;;;;12.50;7.40;;;;;;;22.84;100.00;96137.88;5135168;27;20230;-80
2021/07/30 03:42:37;;;;;;;12.07;8.10;;;;;;;22.90;100.00;96139.63;5134692;27;20233;-80
2021/07/30 03:45:06;;;;;;;13.97;8.57;;;;;;;22.87;100.00;96142.78;5134810;27;20727;-80
2021/07/30 03:47:33;;;;;;;12.20;8.10;;;;;;;23.05;100.00;96139.13;5135169;27;20194;-80
2021/07/30 03:50:00;;;;;;;14.13;8.33;;;;;;;22.97;100.00;96140.31;5135125;27;20203;-80
2021/07/30 03:52:27;;;;;;;12.43;9.17;;;;;;;22.80;100.00;96131.38;5134676;27;20223;-80
2021/07/30 03:54:55;;;;;;;11.07;7.97;;;;;;;22.69;100.00;96134.94;5134722;27;20659;-80
2021/07/30 03:57:22;;;;;;;12.90;8.73;;;;;;;22.71;100.00;96132.81;5135129;27;20290;-81
2021/07/30 03:59:53;;;;;;;13.93;8.60;;;;;;;22.71;100.00;96133.63;5135128;27;20191;-81
2021/07/30 04:02:21;;;;;;;10.07;7.83;;;;;;;22.94;100.00;96131.94;5135223;27;20183;-80
2021/07/30 04:04:48;;;;;;;11.17;8.73;;;;;;;22.83;100.00;96130.91;5134452;27;20228;-80
2021/07/30 04:07:15;;;;;;;8.97;8.00;;;;;;;22.95;100.00;96134.38;5135235;27;20195;-81
2021/07/30 04:09:42;;;;;;;18.53;9.57;;;;;;;22.92;100.00;96126.81;5134731;27;20206;-80
2021/07/30 04:12:10;;;;;;;13.07;9.03;;;;;;;23.17;100.00;96131.84;5134722;27;20218;-80
2021/07/30 04:14:37;;;;;;;13.27;9.37;;;;;;;23.01;100.00;96137.97;5135302;27;20187;-81
2021/07/30 04:17:07;;;;;;;14.30;9.27;;;;;;;22.91;100.00;96140.44;5134555;27;20203;-81
2021/07/30 04:19:35;;;;;;;16.50;9.53;;;;;;;22.96;100.00;96130.63;5134439;27;20712;-81
2021/07/30 04:22:02;;;;;;;19.07;9.73;;;;;;;22.93;100.00;96127.63;5134987;27;20191;-80
2021/07/30 04:24:35;;;;;;;17.77;8.67;;;;;;;22.96;100.00;96127.94;5141447;27;20197;-80
2021/07/30 04:27:02;;;;;;;15.80;9.13;;;;;;;23.01;100.00;96122.69;5139014;27;20247;-81
2021/07/30 04:29:30;;;;;;;13.90;8.40;;;;;;;23.00;100.00;96131.81;5134380;27;20667;-81
2021/07/30 04:31:57;;;;;;;11.80;8.23;;;;;;;22.85;100.00;96128.78;5134537;27;20279;-82
2021/07/30 04:34:26;;;;;;;15.07;8.53;;;;;;;23.08;100.00;96135.16;5134608;27;20277;-81
2021/07/30 04:36:53;;;;;;;18.43;9.33;;;;;;;22.91;100.00;96121.66;5134481;27;20201;-80
2021/07/30 04:39:20;;;;;;;13.20;9.33;;;;;;;23.08;100.00;96132.47;5134509;27;20277;-80
2021/07/30 04:41:47;;;;;;;17.63;9.70;;;;;;;22.97;100.00;96118.06;5134378;27;20251;-81
2021/07/30 04:44:15;;;;;;;13.57;8.17;;;;;;;23.08;100.00;96121.75;5134056;27;20294;-80
2021/07/30 04:46:42;;;;;;;13.57;9.40;;;;;;;23.07;100.00;96122.78;5134041;27;20194;-80
2021/07/30 04:49:09;;;;;;;14.80;9.13;;;;;;;23.31;100.00;96115.41;5133888;27;20195;-81
2021/07/30 04:51:38;;;;;;;17.13;8.63;;;;;;;23.48;100.00;96111.72;5134130;27;20214;-81
2021/07/30 04:54:05;;;;;;;18.03;8.57;;;;;;;23.58;100.00;96112.91;5132821;27;20195;-81
2021/07/30 04:56:32;;;;;;;13.40;8.47;;;;;;;23.57;100.00;96114.78;5134040;27;20222;-80
2021/07/30 04:59:00;;;;;;;11.67;8.23;;;;;;;23.58;100.00;96120.97;5133510;27;20195;-81
2021/07/30 05:01:27;;;;;;;13.57;8.37;;;;;;;23.75;100.00;96119.09;5133674;27;20273;-80
2021/07/30 05:03:54;;;;;;;16.00;8.27;;;;;;;23.78;100.00;96120.50;5133737;27;20199;-80
2021/07/30 05:06:22;;;;;;;14.20;8.17;;;;;;;23.76;100.00;96120.72;5133911;27;20247;-81
2021/07/30 05:08:51;;;;;;;15.77;8.50;;;;;;;23.73;100.00;96126.63;5133700;27;20582;-80
2021/07/30 05:11:18;;;;;;;11.33;8.33;;;;;;;23.69;100.00;96118.25;5133735;27;20210;-82
2021/07/30 05:13:46;;;;;;;14.80;8.57;;;;;;;23.57;100.00;96122.84;5133575;27;20234;-81
2021/07/30 05:16:14;;;;;;;11.40;8.90;;;;;;;23.50;100.00;96120.31;5133644;27;20285;-81
2021/07/30 05:18:42;;;;;;;19.60;8.53;;;;;;;23.49;100.00;96117.88;5133049;27;20222;-81
2021/07/30 05:21:12;;;;;;;13.20;9.60;;;;;;;23.54;100.00;96120.63;5133525;27;20194;-82
2021/07/30 05:23:40;;;;;;;19.83;9.30;;;;;;;23.71;100.00;96120.66;5133521;27;20191;-80
2021/07/30 05:26:09;;;;;;;13.00;9.07;;;;;;;23.87;100.00;96114.47;5133487;27;20194;-81
2021/07/30 05:28:36;;;;;;;11.93;7.80;;;;;;;23.99;100.00;96113.56;5133434;27;20198;-81
2021/07/30 05:31:03;;;;;;;11.70;8.77;;;;;;;24.15;100.00;96123.44;5133315;27;20255;-81
2021/07/30 05:33:31;;;;;;;11.27;9.00;;;;;;;24.15;100.00;96132.31;5133334;27;20694;-81
2021/07/30 05:35:59;;;;;;;13.30;8.43;;;;;;;24.29;100.00;96129.28;5133026;27;20195;-81
2021/07/30 05:38:26;;;;;;;12.10;9.40;;;;;;;24.38;100.00;96136.63;5133288;27;20199;-82
2021/07/30 05:40:53;;;;;;;19.70;9.40;;;;;;;24.24;100.00;96139.94;5133441;27;20216;-81
2021/07/30 05:43:22;;;;;;;18.60;10.23;;;;;;;24.40;100.00;96134.56;5133217;27;20243;-81
2021/07/30 05:45:49;;;;;;;22.40;10.03;;;;;;;24.55;100.00;96138.50;5133184;27;20630;-81
2021/07/30 05:48:16;;;;;;;15.87;10.07;;;;;;;24.75;100.00;96135.25;5133201;27;20198;-81
2021/07/30 05:50:48;;;;;;;25.20;9.33;;;;;;;24.98;100.00;96134.16;5132499;27;20678;-80
2021/07/30 05:53:16;;;;;;;19.40;10.93;;;;;;;25.19;100.00;96145.97;5133117;27;20199;-81
2021/07/30 05:55:43;;;;;;;35.57;10.17;;;;;;;25.31;100.00;96147.41;5132600;27;20199;-81
2021/07/30 05:58:10;;;;;;;17.98;10.07;;;;;;;25.55;100.00;96144.38;5133108;27;20183;-81
2021/07/30 06:00:39;;;;;;;13.98;9.55;;;;;;;25.74;100.00;96145.63;5133108;27;20627;-81
2021/07/30 06:03:06;;;;;;;12.88;10.18;;;;;;;25.94;100.00;96152.25;5132699;27;20252;-81
2021/07/30 06:05:33;;;;;;;17.05;8.80;;;;;;;26.19;100.00;96162.41;5132906;27;20194;-81
2021/07/30 06:08:04;;;;;;;20.20;9.88;;;;;;;26.36;100.00;96171.13;5132997;27;20194;-81
2021/07/30 06:10:31;;;;;;;18.35;9.50;;;;;;;26.55;100.00;96180.41;5132359;27;20218;-80
2021/07/30 06:12:59;;;;;;;14.68;9.63;;;;;;;26.71;100.00;96178.59;5132680;27;20290;-81
2021/07/30 06:15:26;;;;;;;16.88;8.40;;;;;;;26.95;100.00;96186.25;5132912;27;20195;-80
2021/07/30 06:17:55;;;;;;;18.50;8.05;;;;;;;27.19;100.00;96187.44;5132876;27;20235;-81
2021/07/30 06:20:24;;;;;;;18.73;8.70;;;;;;;27.35;100.00;96182.06;5132441;27;20787;-81
2021/07/30 06:22:51;;;;;;;17.70;8.32;;;;;;;27.58;100.00;96184.25;5132835;27;20213;-81
2021/07/30 06:25:19;;;;;;;16.98;10.35;;;;;;;27.74;100.00;96194.00;5132811;27;20634;-80
2021/07/30 06:27:46;;;;;;;17.65;8.77;;;;;;;28.05;100.00;96198.59;5132766;27;20238;-81
2021/07/30 06:30:15;;;;;;;13.40;8.00;;;;;;;28.29;100.00;96194.22;5132337;27;20190;-80
2021/07/30 06:32:42;;;;;;;15.93;7.97;;;;;;;28.39;100.00;96204.25;5132926;27;20218;-81
2021/07/30 06:35:15;;;;;;;17.35;8.80;;;;;;;28.50;100.00;96197.72;5132415;27;20195;-80
2021/07/30 06:37:43;;;;;;;12.73;7.85;;;;;;;28.66;100.00;96184.97;5133046;27;20604;-82
2021/07/30 06:40:11;;;;;;;17.35;8.75;;;;;;;29.00;100.00;96190.56;5132516;27;20664;-81
2021/07/30 06:42:39;;;;;;;16.42;7.57;;;;;;;29.13;100.00;96192.66;5132611;27;20683;-80
2021/07/30 06:45:08;;;;;;;12.68;8.32;;;;;;;29.13;100.00;96191.81;5132382;27;20190;-81
2021/07/30 06:47:35;;;;;;;22.10;9.20;;;;;;;29.36;100.00;96193.06;5132495;27;20241;-81
2021/07/30 06:50:02;;;;;;;14.25;8.10;;;;;;;29.43;100.00;96195.47;5132134;27;20232;-81
2021/07/30 06:52:32;;;;;;;16.95;8.45;;;;;;;29.61;100.00;96194.81;5132628;27;20222;-81
2021/07/30 06:54:59;;;;;;;14.43;8.07;;;;;;;29.73;100.00;96203.41;5132648;27;20586;-81
2021/07/30 06:57:26;;;;;;;16.63;8.40;;;;;;;29.91;100.00;96204.63;5132388;27;20195;-82
2021/07/30 06:59:54;;;;;;;10.05;7.43;;;;;;;30.05;100.00;96208.28;5132012;27;20194;-82
2021/07/30 07:02:21;;;;;;;14.38;8.27;;;;;;;30.16;100.00;96202.78;5132388;27;20251;-81
2021/07/30 07:04:48;;;;;;;16.42;8.05;;;;;;;30.32;100.00;96205.09;5132222;27;20722;-81
2021/07/30 07:07:16;;;;;;;13.32;9.05;;;;;;;30.52;100.00;96214.13;5132348;27;20720;-81
2021/07/30 07:09:45;;;;;;;12.63;8.15;;;;;;;30.70;100.00;96213.38;5131909;27;20682;-82
2021/07/30 07:12:12;;;;;;;12.82;7.57;;;;;;;30.89;100.00;96210.75;5132313;27;20222;-81
2021/07/30 07:14:39;;;;;;;11.90;7.80;;;;;;;30.77;100.00;96216.59;5132470;27;20252;-81
2021/07/30 07:17:06;;;;;;;12.52;7.35;;;;;;;31.14;100.00;96208.81;5135023;27;20226;-81
2021/07/30 07:19:34;;;;;;;10.50;7.20;;;;;;;31.16;100.00;96212.06;5135455;27;20260;-81
2021/07/30 07:22:01;;;;;;;10.48;7.93;;;;;;;31.14;100.00;96211.53;5136001;27;20193;-81
2021/07/30 07:24:28;;;;;;;11.13;7.97;;;;;;;31.42;100.00;96223.41;5135674;27;20191;-81
2021/07/30 07:26:57;;;;;;;8.35;7.28;;;;;;;31.67;100.00;96222.25;5135844;27;20251;-81
2021/07/30 07:29:24;;;;;;;10.55;7.05;;;;;;;31.85;100.00;96220.59;5135442;27;20728;-81
2021/07/30 07:31:52;;;;;;;11.90;7.07;;;;;;;31.91;100.00;96224.91;5135706;27;20191;-82
2021/07/30 07:34:19;;;;;;;11.98;8.02;;;;;;;32.05;100.00;96223.03;5135837;27;20650;-81
2021/07/30 07:36:46;;;;;;;14.45;7.15;;;;;;;32.28;100.00;96220.47;5136013;27;20226;-81
2021/07/30 07:39:13;;;;;;;15.40;7.75;;;;;;;32.06;100.00;96216.47;5135462;27;20259;-81
2021/07/30 07:41:44;;;;;;;11.75;8.00;;;;;;;32.43;100.00;96218.31;5135345;27;20255;-82
2021/07/30 07:44:14;;;;;;;15.65;7.07;;;;;;;32.50;100.00;96212.50;5135935;27;20191;-80
2021/07/30 07:46:41;;;;;;;10.07;7.28;;;;;;;32.42;100.00;96205.00;5135859;27;20217;-81
2021/07/30 07:49:08;;;;;;;11.50;8.77;;;;;;;32.70;100.00;96210.47;5135396;27;20230;-81
2021/07/30 07:51:36;;;;;;;10.45;8.48;;;;;;;32.66;100.00;96208.38;5135382;27;20628;-82
2021/07/30 07:54:04;;;;;;;11.75;8.55;;;;;;;32.86;100.00;96207.16;5135027;27;20650;-81
2021/07/30 07:56:31;;;;;;;12.68;8.55;;;;;;;32.98;100.00;96201.25;5135259;27;20285;-81
2021/07/30 07:58:59;;;;;;;15.63;8.43;;;;;;;33.14;100.00;96204.44;5135095;27;20195;-81
2021/07/30 08:01:28;;;;;;;13.82;7.55;;;;;;;33.07;100.00;96210.28;5134941;27;20683;-81
2021/07/30 08:03:55;;;;;;;12.55;8.70;;;;;;;33.03;100.00;96203.03;5134980;27;20226;-81
2021/07/30 08:06:23;;;;;;;25.38;8.32;;;;;;;33.03;100.00;96203.03;5135460;27;20195;-82
2021/07/30 08:08:51;;;;;;;14.60;8.70;;;;;;;33.44;100.00;96191.28;5134644;27;20286;-81
2021/07/30 08:11:18;;;;;;;21.52;8.18;;;;;;;33.33;100.00;96196.94;5135015;27;20579;-82
2021/07/30 08:13:46;;;;;;;15.95;7.85;;;;;;;33.28;100.00;96196.25;5135049;27;20222;-81
2021/07/30 08:16:13;;;;;;;12.45;8.30;;;;;;;33.36;100.00;96201.78;5134795;27;20191;-82
2021/07/30 08:18:42;;;;;;;12.30;8.40;;;;;;;33.52;100.00;96196.81;5134633;27;20226;-80
2021/07/30 08:21:09;;;;;;;11.18;7.93;;;;;;;33.47;100.00;96190.66;5134796;27;20556;-81
2021/07/30 08:23:37;;;;;;;10.30;8.00;;;;;;;33.51;100.00;96199.88;5135039;27;20187;-81
2021/07/30 08:26:04;;;;;;;22.30;8.43;;;;;;;33.73;100.00;96191.69;5134527;27;20574;-81
2021/07/30 08:28:31;;;;;;;9.88;7.60;;;;;;;33.59;100.00;96193.66;5134441;27;20191;-82
2021/07/30 08:30:59;;;;;;;9.05;7.25;;;;;;;33.46;100.00;96200.75;5134434;27;20234;-81
2021/07/30 08:33:26;;;;;;;15.57;8.93;;;;;;;33.13;100.00;96200.91;5134868;27;20219;-82
2021/07/30 08:35:55;;;;;;;14.82;8.60;;;;;;;33.33;100.00;96196.94;5134594;27;20191;-81
2021/07/30 08:38:22;;;;;;;13.85;7.63;;;;;;;33.53;100.00;96186.72;5134248;27;20663;-82
2021/07/30 08:40:49;;;;;;;12.27;8.10;;;;;;;33.68;100.00;96186.38;5134128;27;20627;-81
2021/07/30 08:43:17;;;;;;;11.15;7.30;;;;;;;33.80;100.00;96189.34;5134364;27;20190;-82
2021/07/30 08:45:50;;;;;;;9.25;8.02;;;;;;;33.50;100.00;96188.16;5134072;27;20236;-82
2021/07/30 08:48:18;;;;;;;13.77;8.10;;;;;;;33.46;100.00;96176.25;5134089;27;20183;-81
2021/07/30 08:50:47;;;;;;;12.50;8.40;;;;;;;33.89;100.00;96189.41;5134014;27;20191;-81
2021/07/30 08:53:23;;;;;;;7.72;6.93;;;;;;;33.74;100.00;96173.41;5134017;27;20228;-82
2021/07/30 08:55:51;;;;;;;11.98;7.57;;;;;;;33.73;100.00;96182.72;5133768;27;20193;-81
2021/07/30 08:58:18;;;;;;;12.35;7.93;;;;;;;33.77;100.00;96183.72;5134069;27;20206;-82
2021/07/30 09:00:46;;;;;;;11.60;8.05;;;;;;;33.92;100.00;96182.56;5133866;27;20289;-82
2021/07/30 09:03:13;;;;;;;12.18;7.97;;;;;;;34.40;100.00;96177.25;5133925;27;20194;-81
2021/07/30 09:05:41;;;;;;;11.13;6.47;;;;;;;34.54;100.00;96180.72;5134067;27;20195;-81
2021/07/30 09:08:09;;;;;;;8.23;7.18;;;;;;;34.17;100.00;96179.19;5133646;27;20774;-81
2021/07/30 09:10:40;;;;;;;11.63;7.40;;;;;;;33.82;100.00;96172.69;5133687;27;20663;-81
2021/07/30 09:13:18;;;;;;;11.27;7.18;;;;;;;33.79;100.00;96178.75;5133724;27;20682;-82
2021/07/30 09:15:47;;;;;;;10.23;6.63;;;;;;;33.82;100.00;96164.50;5133764;27;20183;-82
2021/07/30 09:18:28;;;;;;;14.95;7.28;;;;;;;33.80;100.00;96170.25;5133259;27;20198;-81
2021/07/30 09:20:56;;;;;;;9.23;7.10;;;;;;;34.14;100.00;96168.91;5133512;27;20245;-82
2021/07/30 09:23:26;;;;;;;14.48;7.68;;;;;;;34.52;100.00;96163.03;5133609;27;20194;-82
2021/07/30 09:25:54;;;;;;;13.25;7.18;;;;;;;34.63;100.00;96161.63;5133455;27;20234;-81
2021/07/30 09:28:22;;;;;;;11.20;7.45;;;;;;;34.57;100.00;96160.19;5133535;27;20624;-81
2021/07/30 09:31:00;;;;;;;14.50;7.03;;;;;;;34.69;100.00;96159.56;5133669;27;20222;-82
2021/07/30 09:33:29;;;;;;;13.02;7.10;;;;;;;34.99;100.00;96153.22;5133695;27;20577;-82
2021/07/30 09:35:57;;;;;;;16.38;7.35;;;;;;;34.93;100.00;96148.22;5133292;27;20198;-82
2021/07/30 09:38:26;;;;;;;11.88;7.57;;;;;;;34.91;100.00;96145.81;5133121;27;20205;-81
2021/07/30 09:41:13;;;;;;;10.95;7.28;;;;;;;34.86;100.00;96147.91;5133189;27;20192;-82
2021/07/30 09:43:45;;;;;;;13.02;7.38;;;;;;;35.00;100.00;96141.16;5133252;27;20182;-81
2021/07/30 09:46:14;;;;;;;11.75;6.82;;;;;;;35.05;100.00;96142.97;5133151;27;20647;-81
2021/07/30 09:48:52;;;;;;;12.15;8.15;;;;;;;35.40;100.00;96146.56;5132885;27;20231;-82
2021/07/30 09:51:20;;;;;;;10.23;7.22;;;;;;;35.50;100.00;96139.94;5133350;27;20620;-82
2021/07/30 09:53:48;;;;;;;12.77;7.40;;;;;;;35.46;100.00;96134.31;5132851;27;20222;-81
2021/07/30 09:56:17;;;;;;;9.55;6.97;;;;;;;35.54;100.00;96130.03;5133221;27;20202;-81
2021/07/30 09:58:47;;;;;;;10.93;7.50;;;;;;;35.26;100.00;96140.41;5133001;27;20199;-81
2021/07/30 10:01:18;;;;;;;15.82;7.18;;;;;;;35.59;100.00;96135.31;5132924;27;20659;-81
2021/07/30 10:03:47;;;;;;;13.10;7.95;;;;;;;35.61;100.00;96124.06;5132949;27;20694;-81
2021/07/30 10:06:15;;;;;;;12.65;7.47;;;;;;;35.52;100.00;96126.00;5132646;27;20709;-83
2021/07/30 10:08:44;;;;;;;14.57;7.45;;;;;;;35.76;100.00;96130.97;5132850;27;20285;-82
2021/07/30 10:11:12;;;;;;;20.67;7.70;;;;;;;35.81;100.00;96123.38;5133092;27;20277;-81
2021/07/30 10:13:50;;;;;;;12.32;7.40;;;;;;;36.01;100.00;96121.94;5132450;27;20218;-80
2021/07/30 10:16:19;;;;;;;13.70;8.07;;;;;;;36.02;100.00;96117.25;5133096;27;20239;-81
2021/07/30 10:18:47;;;;;;;15.93;7.05;;;;;;;36.03;100.00;96125.16;5132561;27;20227;-81
2021/07/30 10:21:16;;;;;;;16.20;8.13;;;;;;;36.12;100.00;96123.19;5132657;27;20666;-82
2021/07/30 10:23:51;;;;;;;17.33;7.88;;;;;;;36.17;100.00;96114.00;5132797;27;20694;-81
2021/07/30 10:26:23;;;;;;;14.00;6.55;;;;;;;36.13;100.00;96113.88;5132738;27;20182;-81
2021/07/30 10:28:58;;;;;;;16.20;6.85;;;;;;;36.23;100.00;96109.94;5132987;27;20183;-82
2021/07/30 10:31:48;;;;;;;13.45;7.35;;;;;;;36.36;100.00;96105.41;5132788;27;20332;-82
2021/07/30 10:34:16;;;;;;;15.50;6.95;;;;;;;36.26;100.00;96106.56;5132873;27;20203;-82
2021/07/30 10:36:43;;;;;;;10.73;6.70;;;;;;;36.18;100.00;96104.66;5132637;27;20667;-82
2021/07/30 10:39:15;;;;;;;8.55;6.90;;;;;;;36.48;100.00;96099.25;5132369;27;20206;-81
2021/07/30 10:42:09;;;;;;;18.05;7.88;;;;;;;36.44;100.00;96099.06;5132989;27;20183;-81
2021/07/30 10:45:17;;;;;;;8.52;6.15;;;;;;;36.65;100.00;96094.50;5132690;27;20218;-81
2021/07/30 10:47:44;;;;;;;11.98;7.70;;;;;;;36.44;100.00;96096.34;5132371;27;20206;-82
2021/07/30 10:50:42;;;;;;;10.40;7.10;;;;;;;36.51;100.00;96085.72;5132380;27;20285;-82
2021/07/30 10:53:42;;;;;;;16.08;7.40;;;;;;;36.64;100.00;96084.66;5136550;27;20229;-81
2021/07/30 10:56:47;;;;;;;9.85;6.25;;;;;;;36.94;100.00;96076.44;5136292;27;20183;-82
2021/07/30 10:59:19;;;;;;;13.52;6.80;;;;;;;36.89;100.00;96080.19;5136268;27;20202;-82
2021/07/30 11:02:01;;;;;;;9.05;6.20;;;;;;;36.98;100.00;96077.41;5136746;27;20561;-82
2021/07/30 11:04:29;;;;;;;10.80;6.72;;;;;;;36.76;100.00;96075.75;5136173;27;20240;-82
2021/07/30 11:06:58;;;;;;;13.45;6.45;;;;;;;36.57;100.00;96073.44;5136329;27;20248;-82
2021/07/30 11:09:40;;;;;;;13.00;6.80;;;;;;;36.74;100.00;96060.78;5135799;27;20228;-81
2021/07/30 11:12:19;;;;;;;10.20;6.50;;;;;;;36.56;100.00;96071.03;5136572;27;20191;-82
2021/07/30 11:14:48;;;;;;;15.32;7.18;;;;;;;36.46;100.00;96057.69;5135698;27;20263;-81
2021/07/30 11:17:17;;;;;;;11.23;6.72;;;;;;;36.10;100.00;96067.22;5136067;27;20194;-82
2021/07/30 11:19:48;;;;;;;14.05;6.45;;;;;;;35.97;100.00;96066.25;5135476;27;20234;-82
2021/07/30 11:22:17;;;;;;;11.07;6.70;;;;;;;35.78;100.00;96061.16;5136204;27;20670;-82
2021/07/30 11:24:46;;;;;;;12.98;7.05;;;;;;;35.45;100.00;96066.34;5136112;27;20190;-83
2021/07/30 11:27:15;;;;;;;9.48;6.07;;;;;;;35.63;100.00;96057.00;5135802;27;20190;-83